KPBG/PBG METAR and TAF weather

Enter ICAO airport designator
Station Type Date Time Source
KPBG METAR 2021/10/24 20:53 UTC NOAA

KPBG 242053Z AUTO 16004KT 10SM SCT070 10/01 A3011 RMK AO2 SLP198 T01000011 53002


Station Type Date Time Source
KPBG Decoded METAR 2021/10/24 20:53 UTC NOAA

PLATTSBURGH INTERNATIONAL AIRPORT, NY, United States (KPBG) 44-39N 073-28W
Oct 24, 2021 - 04:53 PM EDT / 2021.10.24 2053 UTC
Wind: from the SSE (160 degrees) at 5 MPH (4 KT):0
Visibility: 10 mile(s):0
Sky conditions: partly cloudy
Temperature: 50.0 F (10.0 C)
Dew Point: 34.0 F (1.1 C)
Relative Humidity: 53%
Pressure (altimeter): 30.11 in. Hg (1019 hPa)
Pressure tendency: 0.01 inches (0.2 hPa) higher than three hours ago
ob: KPBG 242053Z AUTO 16004KT 10SM SCT070 10/01 A3011 RMK AO2 SLP198 T01000011 53002
cycle: 21

Station Type Date Time Source
KPBG TAF 2021/10/24 18:27 UTC NOAA

TAF KPBG 241722Z 2418/2518 13006KT P6SM FEW120
FM250600 VRB04KT P6SM VCSH OVC090
FM250800 14006KT 6SM -RA BR OVC050
FM251100 09005KT 3SM -RA BR OVC016

Example: see airport list